PWSweather.com
Personal Weather Stations
Station Observations
MADWEATHER
MadeiraPT

MadeiraPT

Lat: 32.735, Lon: -17.194

Elevation: 1063

Station Type: Davis VantagePro2

www.mad-weather.com

High Low Average
Temperature 69.2°F20.7°C 61.0°F16.1°C 63.8°F17.7°C
Dew Point 61.0°F16.1°C 56.3°F13.5°C 58.3°F14.6°C
Winds 11.3 mph 18.2 kmh 0.3 mph 0.5 kmh 5.0 mph SE8.0 kmh SE
Wind Gusts 15.0 mph24.1 kmh -- 7.0 mph11.3 kmh
Humidity 87% 74% 82%
Pressure 30.09 in1019.0 mb 30.02 in1016.6 mb -
Precipitation 0.00 in0.0 mm - -
Hour Temp Dew Point Humidity Winds Wind Gusts Pressure Precip Precip Rate Daily Precip Total
12:00 AM 62.6°F17.0°C 57.7°F14.3°C 84% 3.7 mph ESE6.0 kmh ESE 5.0 mph8.0 kmh 30.04 in1017.3 mb - 0.00 in0.0 mm 0.00 in0.0 mm
12:10 AM 62.5°F16.9°C 57.6°F14.2°C 84% 3.3 mph ESE5.3 kmh ESE 5.0 mph8.0 kmh 30.04 in1017.3 mb - 0.00 in0.0 mm 0.00 in0.0 mm
12:20 AM 62.5°F16.9°C 57.6°F14.2°C 84% 1.7 mph ESE2.7 kmh ESE 3.0 mph4.8 kmh 30.04 in1017.3 mb - 0.00 in0.0 mm 0.00 in0.0 mm
12:30 AM 62.6°F17.0°C 57.7°F14.3°C 84% 2.0 mph ESE3.2 kmh ESE 3.0 mph4.8 kmh 30.05 in1017.6 mb - 0.00 in0.0 mm 0.00 in0.0 mm
12:40 AM 62.5°F16.9°C 57.6°F14.2°C 84% 2.6 mph ESE4.2 kmh ESE 4.0 mph6.4 kmh 30.05 in1017.6 mb - 0.00 in0.0 mm 0.00 in0.0 mm
12:50 AM 62.5°F16.9°C 57.6°F14.2°C 84% 3.2 mph ESE5.1 kmh ESE 4.0 mph6.4 kmh 30.05 in1017.6 mb - 0.00 in0.0 mm 0.00 in0.0 mm
01:00 AM 62.5°F16.9°C 57.6°F14.2°C 84% 2.8 mph ESE4.5 kmh ESE 4.0 mph6.4 kmh 30.05 in1017.6 mb - 0.00 in0.0 mm 0.00 in0.0 mm
01:10 AM 62.5°F16.9°C 57.6°F14.2°C 84% 3.4 mph ESE5.5 kmh ESE 6.0 mph9.7 kmh 30.04 in1017.3 mb - 0.00 in0.0 mm 0.00 in0.0 mm
01:20 AM 62.4°F16.9°C 57.5°F14.2°C 84% 3.1 mph ESE5.0 kmh ESE 4.0 mph6.4 kmh 30.04 in1017.3 mb - 0.00 in0.0 mm 0.00 in0.0 mm
01:30 AM 62.3°F16.8°C 57.4°F14.1°C 84% 3.4 mph ESE5.5 kmh ESE 5.0 mph8.0 kmh 30.04 in1017.3 mb - 0.00 in0.0 mm 0.00 in0.0 mm
01:40 AM 62.3°F16.8°C 57.4°F14.1°C 84% 3.4 mph ESE5.5 kmh ESE 6.0 mph9.7 kmh 30.03 in1016.9 mb - 0.00 in0.0 mm 0.00 in0.0 mm
01:50 AM 62.3°F16.8°C 57.4°F14.1°C 84% 3.5 mph ESE5.6 kmh ESE 6.0 mph9.7 kmh 30.03 in1016.9 mb - 0.00 in0.0 mm 0.00 in0.0 mm
02:00 AM 62.3°F16.8°C 57.4°F14.1°C 84% 1.0 mph ESE1.6 kmh ESE 1.0 mph1.6 kmh 30.03 in1016.9 mb - 0.00 in0.0 mm 0.00 in0.0 mm
02:10 AM 62.3°F16.8°C 57.4°F14.1°C 84% 2.2 mph ESE3.5 kmh ESE 3.0 mph4.8 kmh 30.04 in1017.3 mb - 0.00 in0.0 mm 0.00 in0.0 mm
02:20 AM 62.3°F16.8°C 57.4°F14.1°C 84% 3.5 mph ESE5.6 kmh ESE 4.0 mph6.4 kmh 30.03 in1016.9 mb - 0.00 in0.0 mm 0.00 in0.0 mm
02:30 AM 62.2°F16.8°C 57.3°F14.1°C 84% 3.3 mph ESE5.3 kmh ESE 5.0 mph8.0 kmh 30.03 in1016.9 mb - 0.00 in0.0 mm 0.00 in0.0 mm
02:40 AM 62.2°F16.8°C 57.3°F14.1°C 84% 2.0 mph ESE3.2 kmh ESE 4.0 mph6.4 kmh 30.03 in1016.9 mb - 0.00 in0.0 mm 0.00 in0.0 mm
02:50 AM 62.2°F16.8°C 57.3°F14.1°C 84% 1.2 mph ESE1.9 kmh ESE 2.0 mph3.2 kmh 30.04 in1017.3 mb - 0.00 in0.0 mm 0.00 in0.0 mm
03:00 AM 62.1°F16.7°C 57.2°F14.0°C 84% 2.8 mph ESE4.5 kmh ESE 3.0 mph4.8 kmh 30.03 in1016.9 mb - 0.00 in0.0 mm 0.00 in0.0 mm
03:10 AM 62.1°F16.7°C 57.2°F14.0°C 84% 2.9 mph ESE4.7 kmh ESE 4.0 mph6.4 kmh 30.04 in1017.3 mb - 0.00 in0.0 mm 0.00 in0.0 mm
03:20 AM 62.1°F16.7°C 57.2°F14.0°C 84% 1.8 mph ESE2.9 kmh ESE 3.0 mph4.8 kmh 30.04 in1017.3 mb - 0.00 in0.0 mm 0.00 in0.0 mm
03:30 AM 62.1°F16.7°C 57.3°F14.1°C 84% 2.2 mph ESE3.5 kmh ESE 4.0 mph6.4 kmh 30.04 in1017.3 mb - 0.00 in0.0 mm 0.00 in0.0 mm
03:40 AM 62.2°F16.8°C 57.3°F14.1°C 84% 1.9 mph ESE3.1 kmh ESE 3.0 mph4.8 kmh 30.04 in1017.3 mb - 0.00 in0.0 mm 0.00 in0.0 mm
03:50 AM 62.3°F16.8°C 57.4°F14.1°C 84% 2.2 mph ESE3.5 kmh ESE 3.0 mph4.8 kmh 30.04 in1017.3 mb - 0.00 in0.0 mm 0.00 in0.0 mm
04:00 AM 62.3°F16.8°C 57.4°F14.1°C 84% 0.9 mph ESE1.4 kmh ESE 2.0 mph3.2 kmh 30.04 in1017.3 mb - 0.00 in0.0 mm 0.00 in0.0 mm
04:10 AM 62.4°F16.9°C 57.2°F14.0°C 83% 1.7 mph ESE2.7 kmh ESE 3.0 mph4.8 kmh 30.03 in1016.9 mb - 0.00 in0.0 mm 0.00 in0.0 mm
04:20 AM 62.4°F16.9°C 57.2°F14.0°C 83% 1.9 mph ESE3.1 kmh ESE 2.0 mph3.2 kmh 30.03 in1016.9 mb - 0.00 in0.0 mm 0.00 in0.0 mm
04:30 AM 62.5°F16.9°C 57.3°F14.1°C 83% 0.6 mph ESE1.0 kmh ESE -- 30.03 in1016.9 mb - 0.00 in0.0 mm 0.00 in0.0 mm
04:40 AM 62.5°F16.9°C 57.3°F14.1°C 83% 0.5 mph ESE0.8 kmh ESE 4.0 mph6.4 kmh 30.03 in1016.9 mb - 0.00 in0.0 mm 0.00 in0.0 mm
04:50 AM 62.5°F16.9°C 57.3°F14.1°C 83% 2.2 mph ESE3.5 kmh ESE 3.0 mph4.8 kmh 30.03 in1016.9 mb - 0.00 in0.0 mm 0.00 in0.0 mm
05:00 AM 62.5°F16.9°C 57.3°F14.1°C 83% 3.2 mph ESE5.1 kmh ESE 4.0 mph6.4 kmh 30.02 in1016.6 mb - 0.00 in0.0 mm 0.00 in0.0 mm
05:10 AM 62.4°F16.9°C 57.2°F14.0°C 83% 2.7 mph ESE4.3 kmh ESE 5.0 mph8.0 kmh 30.02 in1016.6 mb - 0.00 in0.0 mm 0.00 in0.0 mm
05:20 AM 62.3°F16.8°C 57.1°F13.9°C 83% 0.3 mph ESE0.5 kmh ESE 2.0 mph3.2 kmh 30.02 in1016.6 mb - 0.00 in0.0 mm 0.00 in0.0 mm
05:30 AM 62.2°F16.8°C 57.0°F13.9°C 83% 1.3 mph ESE2.1 kmh ESE 3.0 mph4.8 kmh 30.02 in1016.6 mb - 0.00 in0.0 mm 0.00 in0.0 mm
05:40 AM 62.2°F16.8°C 57.0°F13.9°C 83% 2.2 mph ESE3.5 kmh ESE 4.0 mph6.4 kmh 30.02 in1016.6 mb - 0.00 in0.0 mm 0.00 in0.0 mm
06:00 AM 62.0°F16.7°C 56.8°F13.8°C 83% 2.3 mph ESE3.7 kmh ESE 3.0 mph4.8 kmh 30.02 in1016.6 mb - 0.00 in0.0 mm 0.00 in0.0 mm
06:10 AM 61.8°F16.6°C 56.6°F13.7°C 83% 3.3 mph ESE5.3 kmh ESE 5.0 mph8.0 kmh 30.02 in1016.6 mb - 0.00 in0.0 mm 0.00 in0.0 mm
06:20 AM 61.7°F16.5°C 56.4°F13.6°C 83% 3.3 mph ESE5.3 kmh ESE 5.0 mph8.0 kmh 30.02 in1016.6 mb - 0.00 in0.0 mm 0.00 in0.0 mm
06:30 AM 61.4°F16.3°C 56.5°F13.6°C 84% 3.0 mph ESE4.8 kmh ESE 4.0 mph6.4 kmh 30.02 in1016.6 mb - 0.00 in0.0 mm 0.00 in0.0 mm
06:40 AM 61.3°F16.3°C 56.4°F13.6°C 84% 3.4 mph ESE5.5 kmh ESE 5.0 mph8.0 kmh 30.02 in1016.6 mb - 0.00 in0.0 mm 0.00 in0.0 mm
06:50 AM 61.2°F16.2°C 56.3°F13.5°C 84% 3.8 mph ESE6.1 kmh ESE 5.0 mph8.0 kmh 30.03 in1016.9 mb - 0.00 in0.0 mm 0.00 in0.0 mm
07:00 AM 61.2°F16.2°C 56.3°F13.5°C 84% 3.3 mph ESE5.3 kmh ESE 4.0 mph6.4 kmh 30.04 in1017.3 mb - 0.00 in0.0 mm 0.00 in0.0 mm
07:10 AM 61.1°F16.2°C 56.6°F13.7°C 85% 4.0 mph ESE6.4 kmh ESE 5.0 mph8.0 kmh 30.04 in1017.3 mb - 0.00 in0.0 mm 0.00 in0.0 mm
07:20 AM 61.2°F16.2°C 56.6°F13.7°C 85% 3.7 mph ESE6.0 kmh ESE 6.0 mph9.7 kmh 30.04 in1017.3 mb - 0.00 in0.0 mm 0.00 in0.0 mm
07:30 AM 61.0°F16.1°C 56.5°F13.6°C 85% 3.6 mph ESE5.8 kmh ESE 6.0 mph9.7 kmh 30.04 in1017.3 mb - 0.00 in0.0 mm 0.00 in0.0 mm
07:40 AM 61.0°F16.1°C 56.5°F13.6°C 85% 2.3 mph ESE3.7 kmh ESE 4.0 mph6.4 kmh 30.04 in1017.3 mb - 0.00 in0.0 mm 0.00 in0.0 mm
07:50 AM 61.1°F16.2°C 56.5°F13.6°C 85% 2.0 mph ESE3.2 kmh ESE 2.0 mph3.2 kmh 30.05 in1017.6 mb - 0.00 in0.0 mm 0.00 in0.0 mm
08:00 AM 61.2°F16.2°C 56.7°F13.7°C 85% 3.4 mph ESE5.5 kmh ESE 5.0 mph8.0 kmh 30.05 in1017.6 mb - 0.00 in0.0 mm 0.00 in0.0 mm
08:10 AM 61.3°F16.3°C 56.8°F13.8°C 85% 2.7 mph ESE4.3 kmh ESE 4.0 mph6.4 kmh 30.06 in1017.9 mb - 0.00 in0.0 mm 0.00 in0.0 mm
08:20 AM 61.6°F16.4°C 57.0°F13.9°C 85% 4.1 mph ESE6.6 kmh ESE 5.0 mph8.0 kmh 30.06 in1017.9 mb - 0.00 in0.0 mm 0.00 in0.0 mm
08:30 AM 62.0°F16.7°C 57.1°F13.9°C 84% 2.2 mph ESE3.5 kmh ESE 4.0 mph6.4 kmh 30.06 in1017.9 mb - 0.00 in0.0 mm 0.00 in0.0 mm
08:40 AM 62.2°F16.8°C 57.4°F14.1°C 84% 0.6 mph ESE1.0 kmh ESE 2.0 mph3.2 kmh 30.07 in1018.3 mb - 0.00 in0.0 mm 0.00 in0.0 mm
08:50 AM 62.6°F17.0°C 57.7°F14.3°C 84% 2.3 mph ESE3.7 kmh ESE 3.0 mph4.8 kmh 30.07 in1018.3 mb - 0.00 in0.0 mm 0.00 in0.0 mm
09:00 AM 63.4°F17.4°C 58.1°F14.5°C 83% 2.8 mph ESE4.5 kmh ESE 3.0 mph4.8 kmh 30.07 in1018.3 mb - 0.00 in0.0 mm 0.00 in0.0 mm
09:10 AM 64.2°F17.9°C 58.6°F14.8°C 82% 4.6 mph ESE7.4 kmh ESE 10.0 mph16.1 kmh 30.07 in1018.3 mb - 0.00 in0.0 mm 0.00 in0.0 mm
09:20 AM 64.6°F18.1°C 58.6°F14.8°C 81% 4.9 mph ESE7.9 kmh ESE 7.0 mph11.3 kmh 30.07 in1018.3 mb - 0.00 in0.0 mm 0.00 in0.0 mm
09:30 AM 65.1°F18.4°C 58.8°F14.9°C 80% 4.8 mph ESE7.7 kmh ESE 6.0 mph9.7 kmh 30.07 in1018.3 mb - 0.00 in0.0 mm 0.00 in0.0 mm
09:40 AM 65.4°F18.6°C 59.1°F15.1°C 80% 2.9 mph ESE4.7 kmh ESE 5.0 mph8.0 kmh 30.08 in1018.6 mb - 0.00 in0.0 mm 0.00 in0.0 mm
09:50 AM 66.1°F18.9°C 59.3°F15.2°C 79% 3.8 mph ESE6.1 kmh ESE 5.0 mph8.0 kmh 30.08 in1018.6 mb - 0.00 in0.0 mm 0.00 in0.0 mm
10:00 AM 66.3°F19.1°C 59.6°F15.3°C 79% 5.0 mph ESE8.0 kmh ESE 11.0 mph17.7 kmh 30.08 in1018.6 mb - 0.00 in0.0 mm 0.00 in0.0 mm
10:10 AM 66.7°F19.3°C 59.6°F15.3°C 78% 8.9 mph SE14.3 kmh SE 11.0 mph17.7 kmh 30.08 in1018.6 mb - 0.00 in0.0 mm 0.00 in0.0 mm
10:20 AM 66.1°F18.9°C 59.4°F15.2°C 79% 7.7 mph SE12.4 kmh SE 12.0 mph19.3 kmh 30.08 in1018.6 mb - 0.00 in0.0 mm 0.00 in0.0 mm
10:30 AM 66.3°F19.1°C 59.6°F15.3°C 79% 7.0 mph SE11.3 kmh SE 9.0 mph14.5 kmh 30.09 in1019.0 mb - 0.00 in0.0 mm 0.00 in0.0 mm
10:40 AM 67.0°F19.4°C 59.9°F15.5°C 78% 6.2 mph SE10.0 kmh SE 11.0 mph17.7 kmh 30.09 in1019.0 mb - 0.00 in0.0 mm 0.00 in0.0 mm
10:50 AM 67.5°F19.7°C 60.0°F15.6°C 77% 7.6 mph SE12.2 kmh SE 11.0 mph17.7 kmh 30.08 in1018.6 mb - 0.00 in0.0 mm 0.00 in0.0 mm
11:00 AM 67.3°F19.6°C 60.2°F15.7°C 78% 8.2 mph SE13.2 kmh SE 12.0 mph19.3 kmh 30.08 in1018.6 mb - 0.00 in0.0 mm 0.00 in0.0 mm
11:10 AM 67.5°F19.7°C 60.4°F15.8°C 78% 8.8 mph SE14.2 kmh SE 11.0 mph17.7 kmh 30.08 in1018.6 mb - 0.00 in0.0 mm 0.00 in0.0 mm
11:20 AM 67.6°F19.8°C 60.5°F15.8°C 78% 5.9 mph SE9.5 kmh SE 10.0 mph16.1 kmh 30.08 in1018.6 mb - 0.00 in0.0 mm 0.00 in0.0 mm
11:30 AM 68.0°F20.0°C 60.5°F15.8°C 77% 9.5 mph SE15.3 kmh SE 12.0 mph19.3 kmh 30.08 in1018.6 mb - 0.00 in0.0 mm 0.00 in0.0 mm
11:40 AM 67.9°F19.9°C 60.4°F15.8°C 77% 7.2 mph SE11.6 kmh SE 12.0 mph19.3 kmh 30.08 in1018.6 mb - 0.00 in0.0 mm 0.00 in0.0 mm
11:50 AM 68.0°F20.0°C 60.1°F15.6°C 76% 6.6 mph SE10.6 kmh SE 9.0 mph14.5 kmh 30.08 in1018.6 mb - 0.00 in0.0 mm 0.00 in0.0 mm
12:00 PM 68.1°F20.1°C 60.6°F15.9°C 77% 7.9 mph SE12.7 kmh SE 11.0 mph17.7 kmh 30.08 in1018.6 mb - 0.00 in0.0 mm 0.00 in0.0 mm
12:10 PM 68.7°F20.4°C 60.5°F15.8°C 75% 6.8 mph SE10.9 kmh SE 11.0 mph17.7 kmh 30.07 in1018.3 mb - 0.00 in0.0 mm 0.00 in0.0 mm
12:20 PM 68.4°F20.2°C 60.2°F15.7°C 75% 7.0 mph SE11.3 kmh SE 11.0 mph17.7 kmh 30.07 in1018.3 mb - 0.00 in0.0 mm 0.00 in0.0 mm
12:30 PM 67.7°F19.8°C 59.8°F15.4°C 76% 7.5 mph SE12.1 kmh SE 11.0 mph17.7 kmh 30.07 in1018.3 mb - 0.00 in0.0 mm 0.00 in0.0 mm
12:40 PM 67.0°F19.4°C 59.5°F15.3°C 77% 5.5 mph SSE8.9 kmh SSE 7.0 mph11.3 kmh 30.07 in1018.3 mb - 0.00 in0.0 mm 0.00 in0.0 mm
12:50 PM 67.1°F19.5°C 59.6°F15.3°C 77% 8.0 mph SSE12.9 kmh SSE 13.0 mph20.9 kmh 30.06 in1017.9 mb - 0.00 in0.0 mm 0.00 in0.0 mm
01:00 PM 66.9°F19.4°C 59.8°F15.4°C 78% 9.3 mph SSE15.0 kmh SSE 11.0 mph17.7 kmh 30.05 in1017.6 mb - 0.00 in0.0 mm 0.00 in0.0 mm
01:10 PM 67.3°F19.6°C 59.8°F15.4°C 77% 7.9 mph SSE12.7 kmh SSE 10.0 mph16.1 kmh 30.05 in1017.6 mb - 0.00 in0.0 mm 0.00 in0.0 mm
01:20 PM 67.6°F19.8°C 59.8°F15.4°C 76% 8.4 mph SSE13.5 kmh SSE 15.0 mph24.1 kmh 30.04 in1017.3 mb - 0.00 in0.0 mm 0.00 in0.0 mm
01:30 PM 67.0°F19.4°C 59.6°F15.3°C 77% 8.1 mph SSE13.0 kmh SSE 9.0 mph14.5 kmh 30.04 in1017.3 mb - 0.00 in0.0 mm 0.00 in0.0 mm
01:40 PM 66.8°F19.3°C 59.7°F15.4°C 78% 8.7 mph SSE14.0 kmh SSE 11.0 mph17.7 kmh 30.04 in1017.3 mb - 0.00 in0.0 mm 0.00 in0.0 mm
01:50 PM 66.6°F19.2°C 59.5°F15.3°C 78% 7.6 mph SSE12.2 kmh SSE 13.0 mph20.9 kmh 30.04 in1017.3 mb - 0.00 in0.0 mm 0.00 in0.0 mm
02:00 PM 67.1°F19.5°C 60.0°F15.6°C 78% 8.4 mph SE13.5 kmh SE 12.0 mph19.3 kmh 30.04 in1017.3 mb - 0.00 in0.0 mm 0.00 in0.0 mm
02:10 PM 67.4°F19.7°C 59.9°F15.5°C 77% 8.6 mph SE13.8 kmh SE 11.0 mph17.7 kmh 30.03 in1016.9 mb - 0.00 in0.0 mm 0.00 in0.0 mm
02:20 PM 68.3°F20.2°C 60.4°F15.8°C 76% 11.3 mph SE18.2 kmh SE 13.0 mph20.9 kmh 30.03 in1016.9 mb - 0.00 in0.0 mm 0.00 in0.0 mm
02:30 PM 69.2°F20.7°C 61.0°F16.1°C 75% 9.0 mph SE14.5 kmh SE 13.0 mph20.9 kmh 30.02 in1016.6 mb - 0.00 in0.0 mm 0.00 in0.0 mm
02:40 PM 68.7°F20.4°C 60.1°F15.6°C 74% 9.8 mph SE15.8 kmh SE 15.0 mph24.1 kmh 30.02 in1016.6 mb - 0.00 in0.0 mm 0.00 in0.0 mm
02:50 PM 67.8°F19.9°C 60.0°F15.6°C 76% 8.8 mph SSE14.2 kmh SSE 12.0 mph19.3 kmh 30.02 in1016.6 mb - 0.00 in0.0 mm 0.00 in0.0 mm
03:00 PM 67.7°F19.8°C 60.2°F15.7°C 77% 8.6 mph SSE13.8 kmh SSE 11.0 mph17.7 kmh 30.02 in1016.6 mb - 0.00 in0.0 mm 0.00 in0.0 mm
03:10 PM 67.7°F19.8°C 60.2°F15.7°C 77% 7.3 mph SE11.7 kmh SE 11.0 mph17.7 kmh 30.02 in1016.6 mb - 0.00 in0.0 mm 0.00 in0.0 mm
03:20 PM 67.5°F19.7°C 60.1°F15.6°C 77% 7.7 mph SE12.4 kmh SE 10.0 mph16.1 kmh 30.02 in1016.6 mb - 0.00 in0.0 mm 0.00 in0.0 mm
03:30 PM 67.4°F19.7°C 60.3°F15.7°C 78% 8.5 mph SSE13.7 kmh SSE 10.0 mph16.1 kmh 30.02 in1016.6 mb - 0.00 in0.0 mm 0.00 in0.0 mm
03:40 PM 66.9°F19.4°C 59.8°F15.4°C 78% 8.5 mph SSE13.7 kmh SSE 11.0 mph17.7 kmh 30.03 in1016.9 mb - 0.00 in0.0 mm 0.00 in0.0 mm
03:50 PM 67.1°F19.5°C 60.0°F15.6°C 78% 8.5 mph SSE13.7 kmh SSE 11.0 mph17.7 kmh 30.03 in1016.9 mb - 0.00 in0.0 mm 0.00 in0.0 mm
04:00 PM 66.8°F19.3°C 59.7°F15.4°C 78% 7.4 mph SE11.9 kmh SE 10.0 mph16.1 kmh 30.03 in1016.9 mb - 0.00 in0.0 mm 0.00 in0.0 mm
04:10 PM 66.5°F19.2°C 59.4°F15.2°C 78% 9.6 mph SE15.4 kmh SE 12.0 mph19.3 kmh 30.03 in1016.9 mb - 0.00 in0.0 mm 0.00 in0.0 mm
04:20 PM 66.1°F18.9°C 59.3°F15.2°C 79% 7.6 mph SSE12.2 kmh SSE 12.0 mph19.3 kmh 30.03 in1016.9 mb - 0.00 in0.0 mm 0.00 in0.0 mm
04:30 PM 65.8°F18.8°C 59.5°F15.3°C 80% 6.6 mph SSE10.6 kmh SSE 9.0 mph14.5 kmh 30.03 in1016.9 mb - 0.00 in0.0 mm 0.00 in0.0 mm
04:40 PM 65.8°F18.8°C 59.5°F15.3°C 80% 7.7 mph SE12.4 kmh SE 11.0 mph17.7 kmh 30.03 in1016.9 mb - 0.00 in0.0 mm 0.00 in0.0 mm
04:50 PM 66.0°F18.9°C 59.7°F15.4°C 80% 6.8 mph SE10.9 kmh SE 11.0 mph17.7 kmh 30.03 in1016.9 mb - 0.00 in0.0 mm 0.00 in0.0 mm
05:00 PM 65.6°F18.7°C 59.3°F15.2°C 80% 7.7 mph SE12.4 kmh SE 10.0 mph16.1 kmh 30.03 in1016.9 mb - 0.00 in0.0 mm 0.00 in0.0 mm
05:10 PM 65.2°F18.4°C 59.2°F15.1°C 81% 6.7 mph SE10.8 kmh SE 11.0 mph17.7 kmh 30.03 in1016.9 mb - 0.00 in0.0 mm 0.00 in0.0 mm
05:20 PM 65.0°F18.3°C 59.3°F15.2°C 82% 6.7 mph SE10.8 kmh SE 12.0 mph19.3 kmh 30.04 in1017.3 mb - 0.00 in0.0 mm 0.00 in0.0 mm
05:30 PM 64.7°F18.2°C 59.1°F15.1°C 82% 8.7 mph SE14.0 kmh SE 10.0 mph16.1 kmh 30.04 in1017.3 mb - 0.00 in0.0 mm 0.00 in0.0 mm
05:40 PM 64.6°F18.1°C 59.3°F15.2°C 83% 7.0 mph SE11.3 kmh SE 10.0 mph16.1 kmh 30.04 in1017.3 mb - 0.00 in0.0 mm 0.00 in0.0 mm
05:50 PM 64.3°F17.9°C 59.0°F15.0°C 83% 6.9 mph SE11.1 kmh SE 11.0 mph17.7 kmh 30.03 in1016.9 mb - 0.00 in0.0 mm 0.00 in0.0 mm
06:00 PM 64.1°F17.8°C 58.8°F14.9°C 83% 4.6 mph SE7.4 kmh SE 8.0 mph12.9 kmh 30.03 in1016.9 mb - 0.00 in0.0 mm 0.00 in0.0 mm
06:10 PM 63.5°F17.5°C 58.6°F14.8°C 84% 5.7 mph SE9.2 kmh SE 8.0 mph12.9 kmh 30.03 in1016.9 mb - 0.00 in0.0 mm 0.00 in0.0 mm
06:20 PM 63.2°F17.3°C 58.6°F14.8°C 85% 3.8 mph SE6.1 kmh SE 5.0 mph8.0 kmh 30.03 in1016.9 mb - 0.00 in0.0 mm 0.00 in0.0 mm
06:30 PM 63.0°F17.2°C 58.4°F14.7°C 85% 5.4 mph SE8.7 kmh SE 9.0 mph14.5 kmh 30.04 in1017.3 mb - 0.00 in0.0 mm 0.00 in0.0 mm
06:40 PM 62.8°F17.1°C 58.6°F14.8°C 86% 3.6 mph SE5.8 kmh SE 5.0 mph8.0 kmh 30.04 in1017.3 mb - 0.00 in0.0 mm 0.00 in0.0 mm
06:50 PM 62.8°F17.1°C 58.5°F14.7°C 86% 4.3 mph SE6.9 kmh SE 4.0 mph6.4 kmh 30.05 in1017.6 mb - 0.00 in0.0 mm 0.00 in0.0 mm
07:00 PM 62.6°F17.0°C 58.4°F14.7°C 86% 2.5 mph SE4.0 kmh SE 5.0 mph8.0 kmh 30.05 in1017.6 mb - 0.00 in0.0 mm 0.00 in0.0 mm
07:10 PM 62.3°F16.8°C 58.4°F14.7°C 87% 2.3 mph SE3.7 kmh SE 3.0 mph4.8 kmh 30.05 in1017.6 mb - 0.00 in0.0 mm 0.00 in0.0 mm
07:20 PM 62.1°F16.7°C 58.2°F14.6°C 87% 2.9 mph SE4.7 kmh SE 4.0 mph6.4 kmh 30.06 in1017.9 mb - 0.00 in0.0 mm 0.00 in0.0 mm
07:30 PM 62.0°F16.7°C 58.1°F14.5°C 87% 4.1 mph SE6.6 kmh SE 6.0 mph9.7 kmh 30.05 in1017.6 mb - 0.00 in0.0 mm 0.00 in0.0 mm
07:40 PM 62.0°F16.7°C 58.1°F14.5°C 87% 4.2 mph SE6.8 kmh SE 6.0 mph9.7 kmh 30.05 in1017.6 mb - 0.00 in0.0 mm 0.00 in0.0 mm
07:50 PM 61.9°F16.6°C 58.0°F14.4°C 87% 5.5 mph SE8.9 kmh SE 8.0 mph12.9 kmh 30.04 in1017.3 mb - 0.00 in0.0 mm 0.00 in0.0 mm
08:00 PM 62.0°F16.7°C 58.1°F14.5°C 87% 3.7 mph SE6.0 kmh SE 5.0 mph8.0 kmh 30.05 in1017.6 mb - 0.00 in0.0 mm 0.00 in0.0 mm
08:10 PM 61.9°F16.6°C 58.0°F14.4°C 87% 5.0 mph SE8.0 kmh SE 6.0 mph9.7 kmh 30.05 in1017.6 mb - 0.00 in0.0 mm 0.00 in0.0 mm
08:20 PM 61.8°F16.6°C 57.9°F14.4°C 87% 5.0 mph SE8.0 kmh SE 6.0 mph9.7 kmh 30.05 in1017.6 mb - 0.00 in0.0 mm 0.00 in0.0 mm
08:30 PM 61.7°F16.5°C 57.8°F14.3°C 87% 3.8 mph SE6.1 kmh SE 6.0 mph9.7 kmh 30.05 in1017.6 mb - 0.00 in0.0 mm 0.00 in0.0 mm
08:40 PM 61.7°F16.5°C 57.7°F14.3°C 87% 2.8 mph SE4.5 kmh SE 5.0 mph8.0 kmh 30.05 in1017.6 mb - 0.00 in0.0 mm 0.00 in0.0 mm
08:50 PM 61.7°F16.5°C 57.8°F14.3°C 87% 2.6 mph SE4.2 kmh SE 5.0 mph8.0 kmh 30.05 in1017.6 mb - 0.00 in0.0 mm 0.00 in0.0 mm
09:00 PM 61.7°F16.5°C 57.8°F14.3°C 87% 6.3 mph SE10.1 kmh SE 9.0 mph14.5 kmh 30.05 in1017.6 mb - 0.00 in0.0 mm 0.00 in0.0 mm
09:10 PM 61.7°F16.5°C 57.8°F14.3°C 87% 5.1 mph ESE8.2 kmh ESE 7.0 mph11.3 kmh 30.05 in1017.6 mb - 0.00 in0.0 mm 0.00 in0.0 mm
09:20 PM 61.7°F16.5°C 57.8°F14.3°C 87% 3.8 mph ESE6.1 kmh ESE 6.0 mph9.7 kmh 30.05 in1017.6 mb - 0.00 in0.0 mm 0.00 in0.0 mm
09:30 PM 61.7°F16.5°C 57.8°F14.3°C 87% 3.9 mph ESE6.3 kmh ESE 5.0 mph8.0 kmh 30.06 in1017.9 mb - 0.00 in0.0 mm 0.00 in0.0 mm
09:40 PM 61.6°F16.4°C 57.7°F14.3°C 87% 6.8 mph ESE10.9 kmh ESE 7.0 mph11.3 kmh 30.05 in1017.6 mb - 0.00 in0.0 mm 0.00 in0.0 mm
09:50 PM 61.4°F16.3°C 57.5°F14.2°C 87% 3.6 mph ESE5.8 kmh ESE 5.0 mph8.0 kmh 30.06 in1017.9 mb - 0.00 in0.0 mm 0.00 in0.0 mm
10:00 PM 61.4°F16.3°C 57.5°F14.2°C 87% 3.9 mph ESE6.3 kmh ESE 6.0 mph9.7 kmh 30.05 in1017.6 mb - 0.00 in0.0 mm 0.00 in0.0 mm
10:10 PM 61.4°F16.3°C 57.5°F14.2°C 87% 3.6 mph ESE5.8 kmh ESE 5.0 mph8.0 kmh 30.06 in1017.9 mb - 0.00 in0.0 mm 0.00 in0.0 mm
10:20 PM 61.6°F16.4°C 57.7°F14.3°C 87% 4.7 mph ESE7.6 kmh ESE 7.0 mph11.3 kmh 30.06 in1017.9 mb - 0.00 in0.0 mm 0.00 in0.0 mm
10:30 PM 61.7°F16.5°C 57.8°F14.3°C 87% 5.1 mph ESE8.2 kmh ESE 6.0 mph9.7 kmh 30.06 in1017.9 mb - 0.00 in0.0 mm 0.00 in0.0 mm
10:40 PM 61.8°F16.6°C 57.9°F14.4°C 87% 3.2 mph ESE5.1 kmh ESE 5.0 mph8.0 kmh 30.06 in1017.9 mb - 0.00 in0.0 mm 0.00 in0.0 mm
10:50 PM 61.8°F16.6°C 57.9°F14.4°C 87% 6.3 mph ESE10.1 kmh ESE 7.0 mph11.3 kmh 30.06 in1017.9 mb - 0.00 in0.0 mm 0.00 in0.0 mm
11:00 PM 61.8°F16.6°C 57.9°F14.4°C 87% 4.7 mph ESE7.6 kmh ESE 7.0 mph11.3 kmh 30.06 in1017.9 mb - 0.00 in0.0 mm 0.00 in0.0 mm
11:10 PM 61.8°F16.6°C 57.9°F14.4°C 87% 4.2 mph ESE6.8 kmh ESE 6.0 mph9.7 kmh 30.06 in1017.9 mb - 0.00 in0.0 mm 0.00 in0.0 mm
11:20 PM 61.8°F16.6°C 57.9°F14.4°C 87% 3.7 mph ESE6.0 kmh ESE 7.0 mph11.3 kmh 30.07 in1018.3 mb - 0.00 in0.0 mm 0.00 in0.0 mm
11:30 PM 61.8°F16.6°C 57.9°F14.4°C 87% 3.6 mph ESE5.8 kmh ESE 6.0 mph9.7 kmh 30.07 in1018.3 mb - 0.00 in0.0 mm 0.00 in0.0 mm
11:40 PM 62.1°F16.7°C 58.2°F14.6°C 87% 4.7 mph ESE7.6 kmh ESE 6.0 mph9.7 kmh 30.07 in1018.3 mb - 0.00 in0.0 mm 0.00 in0.0 mm
11:50 PM 62.2°F16.8°C 58.3°F14.6°C 87% 6.1 mph ESE9.8 kmh ESE 8.0 mph12.9 kmh 30.07 in1018.3 mb - 0.00 in0.0 mm 0.00 in0.0 mm